Time;durP1;ratioP1;P1;durP2;ratioP2;P2;SDS_P1;SDS_P2;PMS_P1;PMS_P2;Temp;Humidity;BMP_temperature;BMP_pressure;BME280_temperature;BME280_humidity;BME280_pressure;Samples;Min_cycle;Max_cycle;Signal;HPM_P1;HPM_P2
2023/03/22 00:02:24;;;;;;;10.15;6.97;;;;;;;10.45;83.79;94917.75;4993776;28;20503;-77
2023/03/22 00:04:51;;;;;;;11.63;6.53;;;;;;;10.08;82.37;94883.81;4972802;28;20129;-78
2023/03/22 00:07:16;;;;;;;8.98;5.93;;;;;;;10.06;82.54;94868.22;4992357;28;20485;-78
2023/03/22 00:09:42;;;;;;;7.95;6.00;;;;;;;10.23;82.25;94881.06;4993931;28;20117;-78
2023/03/22 00:12:07;;;;;;;9.00;5.80;;;;;;;10.43;82.07;94899.47;4993665;28;20042;-78
2023/03/22 00:14:33;;;;;;;9.85;6.78;;;;;;;10.55;81.47;94917.66;4993191;28;20088;-78
2023/03/22 00:16:58;;;;;;;9.82;6.40;;;;;;;10.05;81.93;94836.69;4975176;28;20049;-78
2023/03/22 00:19:23;;;;;;;9.85;6.45;;;;;;;10.12;81.80;94855.72;4975692;28;20085;-78
2023/03/22 00:21:50;;;;;;;11.35;6.63;;;;;;;10.32;81.51;94918.38;4993638;28;20069;-78
2023/03/22 00:24:15;;;;;;;9.25;6.15;;;;;;;9.47;82.10;94838.44;4993397;28;20113;-78
2023/03/22 00:26:41;;;;;;;9.68;6.63;;;;;;;9.99;82.54;94883.63;4972305;28;20129;-78
2023/03/22 00:29:06;;;;;;;8.80;6.28;;;;;;;9.03;84.08;94825.16;4983816;28;20416;-78
2023/03/22 00:31:31;;;;;;;9.02;6.30;;;;;;;9.58;85.53;94906.13;4993124;28;20045;-78
2023/03/22 00:33:57;;;;;;;9.48;7.05;;;;;;;9.25;86.17;94849.41;4993188;28;20042;-77
2023/03/22 00:36:22;;;;;;;13.77;7.25;;;;;;;9.14;85.81;94838.09;4975085;28;20074;-78
2023/03/22 00:38:48;;;;;;;9.65;6.55;;;;;;;9.83;86.03;94895.41;4992736;28;20045;-78
2023/03/22 00:41:16;;;;;;;11.23;7.72;;;;;;;9.80;85.60;94895.94;4992736;28;20109;-78
2023/03/22 00:43:42;;;;;;;10.50;7.47;;;;;;;9.74;85.01;94875.88;4972270;28;20088;-78
2023/03/22 00:46:10;;;;;;;11.73;6.75;;;;;;;9.69;84.52;94871.38;4992283;28;20034;-77
2023/03/22 00:48:35;;;;;;;10.85;6.78;;;;;;;9.26;85.55;94864.22;4992606;28;20048;-78
2023/03/22 00:51:01;;;;;;;11.30;6.93;;;;;;;8.43;87.89;94785.50;4974109;28;20042;-78
2023/03/22 00:53:27;;;;;;;10.35;6.90;;;;;;;9.03;89.09;94864.84;4974898;28;20133;-78
2023/03/22 00:55:55;;;;;;;11.35;7.95;;;;;;;9.15;88.15;94894.44;4981079;28;20113;-78
2023/03/22 00:58:20;;;;;;;10.95;7.32;;;;;;;9.27;88.26;94894.91;5007657;28;20084;-77
2023/03/22 01:00:47;;;;;;;12.07;7.72;;;;;;;9.40;88.61;94889.03;4985764;28;20527;-78
2023/03/22 01:03:14;;;;;;;9.80;7.10;;;;;;;9.35;86.81;94896.19;4974555;28;20030;-78
2023/03/22 01:05:43;;;;;;;9.52;7.30;;;;;;;9.31;87.69;94855.47;4992395;28;20500;-78
2023/03/22 01:08:09;;;;;;;8.80;7.18;;;;;;;9.30;86.95;94894.38;4991880;28;20046;-77
2023/03/22 01:10:36;;;;;;;11.23;7.38;;;;;;;9.07;87.56;94858.75;4990004;28;20042;-78
2023/03/22 01:13:02;;;;;;;12.23;7.20;;;;;;;8.59;88.04;94860.25;4974361;28;20100;-78
2023/03/22 01:15:27;;;;;;;9.40;7.25;;;;;;;8.82;89.16;94891.38;4992173;28;20042;-77
2023/03/22 01:17:53;;;;;;;9.90;7.18;;;;;;;8.34;90.09;94844.44;4992262;28;20408;-78
2023/03/22 01:20:18;;;;;;;10.95;7.97;;;;;;;8.69;90.97;94870.81;4971026;28;20272;-77
2023/03/22 01:22:44;;;;;;;9.90;7.30;;;;;;;8.23;90.63;94816.44;4991892;28;20038;-78
2023/03/22 01:25:09;;;;;;;11.35;8.15;;;;;;;8.35;90.48;94832.81;4974392;28;20073;-77
2023/03/22 01:27:35;;;;;;;12.38;7.70;;;;;;;8.68;90.92;94879.00;4974411;28;20428;-77
2023/03/22 01:30:01;;;;;;;11.50;7.45;;;;;;;8.63;90.88;94881.63;4991574;28;20121;-77
2023/03/22 01:32:26;;;;;;;11.57;7.35;;;;;;;8.48;91.41;94877.97;4992147;28;20030;-78
2023/03/22 01:34:52;;;;;;;13.05;7.38;;;;;;;8.08;91.02;94814.59;4991938;28;20425;-78
2023/03/22 01:37:18;;;;;;;11.65;7.55;;;;;;;8.10;90.85;94789.50;4991732;28;20038;-78
2023/03/22 01:39:43;;;;;;;18.83;7.53;;;;;;;8.69;89.82;94878.72;4974008;28;20101;-78
2023/03/22 01:42:13;;;;;;;14.35;8.00;;;;;;;8.09;89.59;94792.38;4991859;28;20038;-78
2023/03/22 01:44:42;;;;;;;11.80;7.85;;;;;;;8.61;90.17;94878.47;4974304;28;20042;-78
2023/03/22 01:47:09;;;;;;;11.73;6.97;;;;;;;8.60;90.13;94871.59;4991245;28;20480;-78
2023/03/22 01:49:35;;;;;;;11.15;7.38;;;;;;;8.13;91.34;94810.09;4974008;28;20584;-78
2023/03/22 01:52:13;;;;;;;11.10;6.88;;;;;;;8.50;91.65;94845.97;4973402;28;20070;-78
2023/03/22 01:54:46;;;;;;;10.95;6.55;;;;;;;8.24;89.83;94824.06;4991464;28;20030;-78
2023/03/22 01:57:11;;;;;;;9.30;6.35;;;;;;;8.38;89.71;94862.13;4972553;28;20034;-78
2023/03/22 01:59:39;;;;;;;8.20;6.00;;;;;;;7.75;90.49;94815.94;4987682;28;20032;-77
2023/03/22 02:02:05;;;;;;;8.90;6.45;;;;;;;7.99;91.24;94824.13;4975782;28;20073;-77
2023/03/22 02:04:37;;;;;;;10.70;6.85;;;;;;;8.24;90.81;94850.47;4990177;28;20058;-78
2023/03/22 02:07:14;;;;;;;8.57;6.45;;;;;;;8.57;91.03;94866.84;4990339;28;20489;-78
2023/03/22 02:09:41;;;;;;;9.32;6.93;;;;;;;8.31;91.99;94808.78;4991226;28;20049;-78
2023/03/22 02:12:31;;;;;;;11.48;8.00;;;;;;;8.54;90.86;94833.03;4972929;28;20038;-78
2023/03/22 02:15:23;;;;;;;14.27;7.68;;;;;;;8.89;91.47;94870.72;4990662;28;20110;-78
2023/03/22 02:18:17;;;;;;;14.25;8.85;;;;;;;8.81;90.07;94868.63;4973447;28;20066;-78
2023/03/22 02:21:04;;;;;;;14.32;8.90;;;;;;;8.79;89.11;94867.31;4999287;28;20050;-77
2023/03/22 02:23:43;;;;;;;16.10;9.18;;;;;;;8.76;89.80;94850.16;4977588;28;20042;-78
2023/03/22 02:26:33;;;;;;;16.58;9.20;;;;;;;8.81;89.71;94873.13;4969169;28;20040;-78
2023/03/22 02:29:12;;;;;;;16.40;10.05;;;;;;;9.09;89.60;94874.34;4989689;28;20042;-78
2023/03/22 02:31:56;;;;;;;15.55;9.85;;;;;;;8.95;88.65;94878.63;4975469;28;20034;-78
2023/03/22 02:34:22;;;;;;;19.20;10.88;;;;;;;9.10;89.49;94883.88;4991037;28;20085;-78
2023/03/22 02:37:02;;;;;;;14.30;10.35;;;;;;;9.23;88.85;94880.66;4990943;28;20515;-78
2023/03/22 02:39:37;;;;;;;17.63;10.07;;;;;;;8.97;87.52;94879.97;4990952;28;20116;-78
2023/03/22 02:42:15;;;;;;;15.95;10.02;;;;;;;8.67;88.26;94822.69;4990853;28;20026;-78
2023/03/22 02:44:46;;;;;;;14.00;9.00;;;;;;;8.87;87.73;94883.41;4991130;28;20108;-76
2023/03/22 02:47:19;;;;;;;16.70;9.65;;;;;;;8.73;88.70;94892.97;4991135;28;20428;-76
2023/03/22 02:50:05;;;;;;;14.63;9.43;;;;;;;8.34;90.38;94873.50;4970420;28;20066;-76
2023/03/22 02:52:58;;;;;;;12.80;8.82;;;;;;;8.39;90.40;94889.34;4986052;28;20036;-77
2023/03/22 02:55:32;;;;;;;13.85;9.85;;;;;;;8.67;90.69;94890.63;4990285;28;20068;-77
2023/03/22 02:58:14;;;;;;;13.15;8.68;;;;;;;8.39;90.51;94890.13;4990178;28;20026;-77
2023/03/22 03:00:40;;;;;;;19.70;9.13;;;;;;;7.90;91.51;94825.69;4990391;28;20034;-76
2023/03/22 03:03:10;;;;;;;12.43;9.15;;;;;;;8.24;91.77;94892.75;4969230;28;20532;-77
2023/03/22 03:05:40;;;;;;;13.15;8.75;;;;;;;8.26;91.68;94855.50;4980258;28;20043;-77
2023/03/22 03:08:09;;;;;;;14.48;10.25;;;;;;;8.58;92.07;94892.22;4990554;28;20046;-77
2023/03/22 03:10:34;;;;;;;12.35;8.80;;;;;;;8.35;92.34;94819.59;4990734;28;20026;-76
2023/03/22 03:13:00;;;;;;;12.60;9.13;;;;;;;8.78;91.26;94861.22;4989455;28;20534;-77
2023/03/22 03:15:25;;;;;;;10.85;8.40;;;;;;;8.88;89.59;94895.59;4990483;28;20030;-77
2023/03/22 03:18:05;;;;;;;11.15;7.88;;;;;;;8.96;88.25;94896.09;4972884;28;20547;-77
2023/03/22 03:20:41;;;;;;;13.32;7.70;;;;;;;8.55;89.52;94890.91;4989227;28;20038;-77
2023/03/22 03:23:27;;;;;;;10.98;6.78;;;;;;;8.22;89.63;94862.38;4989986;28;20034;-76
2023/03/22 03:26:01;;;;;;;11.20;7.68;;;;;;;8.66;89.95;94897.75;4990333;28;20057;-77
2023/03/22 03:28:48;;;;;;;9.95;7.32;;;;;;;8.20;88.84;94833.59;4990371;28;20026;-77
2023/03/22 03:31:39;;;;;;;9.70;6.85;;;;;;;8.69;88.94;94902.53;4969485;28;20062;-77
2023/03/22 03:34:04;;;;;;;8.20;6.20;;;;;;;8.62;88.92;94901.97;4983023;28;20053;-77
2023/03/22 03:36:33;;;;;;;9.27;6.88;;;;;;;8.32;90.74;94857.09;4969113;28;20572;-76
2023/03/22 03:39:01;;;;;;;14.52;7.93;;;;;;;8.47;90.88;94857.88;4985282;28;20121;-76
2023/03/22 03:41:29;;;;;;;8.40;6.07;;;;;;;8.79;89.67;94906.97;4989934;28;20042;-77
2023/03/22 03:43:57;;;;;;;7.72;6.00;;;;;;;8.44;87.86;94860.28;4990028;28;20382;-77
2023/03/22 03:46:23;;;;;;;9.93;6.55;;;;;;;8.85;88.74;94898.75;4987785;28;20049;-77
2023/03/22 03:48:51;;;;;;;6.63;5.22;;;;;;;8.72;88.14;94870.25;4972619;28;20488;-77
2023/03/22 03:51:17;;;;;;;6.30;5.18;;;;;;;9.01;86.71;94906.63;4972475;28;20515;-77
2023/03/22 03:53:43;;;;;;;6.78;4.72;;;;;;;8.33;86.40;94811.13;4989718;28;20034;-77
2023/03/22 03:56:09;;;;;;;6.72;5.25;;;;;;;8.36;85.89;94808.75;4990101;28;20042;-77
2023/03/22 03:58:35;;;;;;;7.90;5.07;;;;;;;8.62;87.27;94853.63;4989902;28;20042;-77
2023/03/22 04:01:02;;;;;;;8.02;5.00;;;;;;;8.76;86.26;94876.59;4990453;28;20408;-77
2023/03/22 04:03:27;;;;;;;7.75;4.15;;;;;;;8.77;87.11;94894.00;4972370;28;20041;-76
2023/03/22 04:05:53;;;;;;;7.13;4.28;;;;;;;8.88;87.02;94885.00;4989793;28;20030;-77
2023/03/22 04:08:18;;;;;;;6.13;4.43;;;;;;;8.84;86.40;94886.63;4990214;28;20428;-77
2023/03/22 04:10:49;;;;;;;9.40;4.15;;;;;;;9.09;87.05;94919.31;4972659;28;20042;-77
2023/03/22 04:13:14;;;;;;;5.75;4.38;;;;;;;8.81;87.13;94889.00;4989963;28;20038;-77
2023/03/22 04:15:40;;;;;;;5.15;4.18;;;;;;;8.50;87.22;94852.06;4971855;28;20042;-77
2023/03/22 04:18:05;;;;;;;7.82;4.65;;;;;;;8.40;88.13;94849.44;4972372;28;20056;-76
2023/03/22 04:20:31;;;;;;;8.15;3.90;;;;;;;8.36;87.66;94831.75;4990165;28;20033;-77
2023/03/22 04:22:56;;;;;;;5.47;4.22;;;;;;;8.87;87.43;94919.66;4972650;28;20584;-77
2023/03/22 04:25:22;;;;;;;6.15;4.55;;;;;;;8.96;87.58;94928.63;4992201;28;20041;-77
2023/03/22 04:27:49;;;;;;;7.15;4.20;;;;;;;8.57;87.30;94891.44;4993368;28;20034;-77
2023/03/22 04:30:18;;;;;;;6.45;4.55;;;;;;;8.58;87.81;94879.00;4975771;28;20042;-77
2023/03/22 04:32:46;;;;;;;5.80;4.22;;;;;;;8.08;87.50;94830.44;4975780;28;20034;-77
2023/03/22 04:35:11;;;;;;;4.55;3.58;;;;;;;8.37;86.87;94902.84;4992642;28;20567;-77
2023/03/22 04:37:37;;;;;;;6.85;4.20;;;;;;;8.39;88.69;94913.13;4992926;28;20042;-77
2023/03/22 04:40:06;;;;;;;5.03;3.72;;;;;;;8.10;88.10;94858.16;4975522;28;20054;-77
2023/03/22 04:42:31;;;;;;;5.55;4.35;;;;;;;8.35;88.92;94883.00;4993170;28;20085;-77
2023/03/22 04:44:57;;;;;;;5.63;4.63;;;;;;;8.21;89.17;94874.81;4992954;28;20129;-77
2023/03/22 04:47:22;;;;;;;6.30;4.28;;;;;;;8.36;89.04;94861.59;4974649;28;20065;-76
2023/03/22 04:49:48;;;;;;;10.30;4.82;;;;;;;8.89;88.85;94931.56;4992135;28;20034;-77
2023/03/22 04:52:14;;;;;;;5.03;4.15;;;;;;;8.56;88.08;94889.03;4982198;28;20125;-77
2023/03/22 04:54:40;;;;;;;7.93;4.47;;;;;;;8.65;88.10;94927.91;4992701;28;20030;-77
2023/03/22 04:57:05;;;;;;;7.20;4.32;;;;;;;8.45;86.86;94897.00;4991623;28;20424;-77
2023/03/22 04:59:31;;;;;;;10.60;4.75;;;;;;;8.63;88.92;94930.00;4991952;28;20045;-77
2023/03/22 05:01:57;;;;;;;6.32;4.30;;;;;;;8.19;87.62;94905.19;4974408;28;20410;-77
2023/03/22 05:04:22;;;;;;;8.80;5.10;;;;;;;8.17;89.70;94945.06;4990551;28;20507;-76
2023/03/22 05:06:48;;;;;;;8.32;5.38;;;;;;;7.96;90.91;94914.41;4977333;28;20037;-77
2023/03/22 05:09:14;;;;;;;7.57;5.35;;;;;;;8.30;90.46;94952.47;4991044;28;20038;-76
2023/03/22 05:11:40;;;;;;;8.82;5.85;;;;;;;8.20;90.56;94960.38;4969175;28;20088;-76
2023/03/22 05:14:08;;;;;;;8.95;5.53;;;;;;;8.02;90.07;94948.47;4967514;28;20373;-77
2023/03/22 05:16:34;;;;;;;7.93;5.82;;;;;;;7.70;90.35;94893.25;4980625;28;20095;-77
2023/03/22 05:19:01;;;;;;;8.52;5.97;;;;;;;7.79;91.30;94882.97;4978602;28;20320;-76
2023/03/22 05:21:27;;;;;;;14.45;6.40;;;;;;;8.42;90.62;94963.59;4966192;28;20053;-77
2023/03/22 05:23:55;;;;;;;13.90;7.03;;;;;;;7.97;90.85;94893.03;4989455;28;20022;-77
2023/03/22 05:26:23;;;;;;;8.63;5.70;;;;;;;8.33;90.38;94945.88;4976928;28;20049;-77
2023/03/22 05:28:50;;;;;;;10.90;6.70;;;;;;;8.64;90.20;94971.25;4962292;28;20329;-78
2023/03/22 05:31:16;;;;;;;9.15;6.70;;;;;;;8.76;89.18;94976.28;4939785;28;20038;-78
2023/03/22 05:33:45;;;;;;;10.65;5.93;;;;;;;8.63;88.73;94974.94;4976654;28;20112;-78
2023/03/22 05:36:10;;;;;;;10.90;6.30;;;;;;;8.00;89.06;94894.38;4962029;28;20066;-77
2023/03/22 05:38:36;;;;;;;11.95;6.40;;;;;;;8.37;89.17;94934.53;4965410;28;20038;-77
2023/03/22 05:41:02;;;;;;;9.38;6.03;;;;;;;8.60;89.40;94953.56;4968235;28;20117;-77
2023/03/22 05:43:28;;;;;;;9.45;6.60;;;;;;;8.17;88.59;94902.78;4981125;28;20113;-78
2023/03/22 05:45:53;;;;;;;10.55;7.05;;;;;;;8.32;89.72;94908.09;4965164;28;20077;-78
2023/03/22 05:48:19;;;;;;;11.25;6.68;;;;;;;8.12;88.38;94884.31;4980832;28;20149;-78
2023/03/22 05:50:44;;;;;;;15.88;6.20;;;;;;;8.45;86.87;94952.50;4979489;28;20038;-77
2023/03/22 05:53:10;;;;;;;10.23;5.55;;;;;;;8.80;87.89;94985.25;4964945;28;20050;-77
2023/03/22 05:55:36;;;;;;;8.73;6.10;;;;;;;8.75;87.67;94991.34;4965589;28;20030;-77
2023/03/22 05:58:03;;;;;;;9.52;5.40;;;;;;;8.66;86.14;94985.00;4983276;28;20069;-76
2023/03/22 06:00:34;;;;;;;6.38;4.68;;;;;;;8.84;86.95;94992.41;4984047;28;20042;-77
2023/03/22 06:03:02;;;;;;;8.33;6.33;;;;;;;8.33;86.80;94925.53;4978117;28;20489;-79
2023/03/22 06:05:35;;;;;;;8.57;6.18;;;;;;;8.24;87.98;94921.03;4980789;28;20297;-77
2023/03/22 06:08:01;;;;;;;11.48;6.07;;;;;;;8.18;87.27;94932.66;4961165;28;20045;-79
2023/03/22 06:10:27;;;;;;;9.98;5.28;;;;;;;8.54;87.07;94983.69;4980098;28;20033;-81
2023/03/22 06:12:59;;;;;;;9.98;5.90;;;;;;;7.86;86.47;94853.69;4972777;28;20458;-84
2023/03/22 06:15:24;;;;;;;8.75;6.10;;;;;;;8.10;86.13;94881.94;4974636;28;20034;-82
2023/03/22 06:17:50;;;;;;;10.55;5.57;;;;;;;8.09;86.97;94927.88;4959575;28;20037;-82
2023/03/22 06:20:16;;;;;;;14.52;6.38;;;;;;;8.27;86.97;94931.06;4963395;28;20038;-81
2023/03/22 06:22:41;;;;;;;14.00;6.47;;;;;;;8.30;86.13;94923.41;4966306;28;20057;-81
2023/03/22 06:25:08;;;;;;;6.60;5.35;;;;;;;8.52;85.68;94923.16;4972113;28;20509;-82
2023/03/22 06:27:34;;;;;;;9.15;6.38;;;;;;;8.55;86.54;94967.53;4972484;28;20049;-79
2023/03/22 06:30:00;;;;;;;9.18;5.82;;;;;;;7.91;87.29;94895.94;4976415;28;20042;-80
2023/03/22 06:32:25;;;;;;;10.02;6.47;;;;;;;8.07;87.59;94923.94;4963266;28;20046;-80
2023/03/22 06:34:54;;;;;;;7.90;6.18;;;;;;;8.46;88.33;95008.81;4962134;28;20058;-79
2023/03/22 06:37:20;;;;;;;9.48;6.85;;;;;;;7.90;88.63;94910.19;4972247;28;20559;-79
2023/03/22 06:39:45;;;;;;;11.63;7.35;;;;;;;8.01;88.17;94912.56;4961304;28;20049;-79
2023/03/22 06:42:11;;;;;;;10.23;7.55;;;;;;;8.62;88.79;94973.34;4976287;28;20037;-79
2023/03/22 06:44:37;;;;;;;8.23;6.80;;;;;;;8.75;88.67;94983.41;4972831;28;20087;-79
2023/03/22 06:47:03;;;;;;;10.50;7.50;;;;;;;9.01;87.14;94999.22;4975785;28;20042;-80
2023/03/22 06:49:30;;;;;;;9.70;7.20;;;;;;;8.69;85.35;94950.09;4974565;28;20536;-79
2023/03/22 06:51:56;;;;;;;8.35;6.43;;;;;;;8.67;84.22;94948.78;4972406;28;20185;-79
2023/03/22 06:54:21;;;;;;;11.85;7.65;;;;;;;9.23;84.30;95018.25;4964056;28;20042;-80
2023/03/22 06:56:47;;;;;;;12.25;7.28;;;;;;;9.18;83.76;94989.94;4973965;28;20045;-80
2023/03/22 06:59:14;;;;;;;10.48;7.72;;;;;;;9.41;84.12;94990.38;4961205;28;20420;-80
2023/03/22 07:01:40;;;;;;;11.48;7.60;;;;;;;8.98;82.88;94960.09;4948765;28;20344;-81
2023/03/22 07:04:05;;;;;;;12.80;7.80;;;;;;;9.49;83.26;95030.34;4962355;28;20038;-79
2023/03/22 07:06:32;;;;;;;11.43;8.25;;;;;;;9.24;83.86;94999.44;4968659;28;20591;-79
2023/03/22 07:08:58;;;;;;;12.27;8.70;;;;;;;8.86;83.55;94950.59;4966874;28;20528;-79
2023/03/22 07:11:25;;;;;;;11.60;8.52;;;;;;;8.89;85.49;94981.78;4967080;28;20116;-79
2023/03/22 07:13:52;;;;;;;12.15;8.95;;;;;;;8.02;85.82;94866.63;4970422;28;20034;-81
2023/03/22 07:16:17;;;;;;;12.73;7.97;;;;;;;8.80;84.24;94999.25;4956130;28;20070;-79
2023/03/22 07:18:43;;;;;;;13.50;9.15;;;;;;;8.70;84.68;94964.88;4975508;28;20184;-79
2023/03/22 07:21:08;;;;;;;14.77;9.38;;;;;;;8.87;85.34;94969.88;4972787;28;20042;-79
2023/03/22 07:23:35;;;;;;;16.05;9.98;;;;;;;9.53;86.18;95043.84;4967007;28;20375;-80
2023/03/22 07:26:00;;;;;;;14.52;9.15;;;;;;;9.60;84.06;95044.34;4973603;28;20261;-80
2023/03/22 07:28:26;;;;;;;12.95;8.15;;;;;;;9.26;82.43;95036.22;4973855;28;20286;-79
2023/03/22 07:31:10;;;;;;;11.65;6.97;;;;;;;9.48;81.81;95051.78;4969100;28;20034;-81
2023/03/22 07:33:39;;;;;;;12.38;8.07;;;;;;;8.99;81.79;94938.69;4972561;28;20054;-81
2023/03/22 07:36:06;;;;;;;14.80;9.55;;;;;;;9.45;81.30;95057.63;4958217;28;20058;-79
2023/03/22 07:38:32;;;;;;;17.33;10.48;;;;;;;9.00;81.01;94961.41;4964677;28;20074;-80
2023/03/22 07:40:58;;;;;;;14.80;10.38;;;;;;;9.24;80.88;94970.31;4958327;28;20050;-79
2023/03/22 07:43:23;;;;;;;16.00;11.65;;;;;;;9.41;80.75;95007.06;4973197;28;20679;-80
2023/03/22 07:45:50;;;;;;;14.45;11.57;;;;;;;9.47;82.22;95050.97;4956544;28;20034;-78
2023/03/22 07:48:17;;;;;;;20.83;13.32;;;;;;;8.79;82.11;94930.78;4957840;28;20070;-79
2023/03/22 07:50:42;;;;;;;22.48;13.68;;;;;;;8.80;81.98;94912.00;4956282;28;20081;-82
2023/03/22 07:53:09;;;;;;;19.70;13.75;;;;;;;9.50;81.26;95002.00;4956380;28;20458;-82
2023/03/22 07:55:35;;;;;;;18.52;13.32;;;;;;;9.86;81.42;95068.84;4975039;28;20053;-81
2023/03/22 07:58:01;;;;;;;19.15;13.20;;;;;;;9.44;80.96;95013.69;4971737;28;20046;-81
2023/03/22 08:00:27;;;;;;;17.10;11.90;;;;;;;9.66;81.12;95052.00;4969451;28;20034;-79
2023/03/22 08:02:52;;;;;;;17.02;11.88;;;;;;;9.63;81.62;95039.28;4977287;28;20030;-85
2023/03/22 08:05:18;;;;;;;18.42;11.63;;;;;;;9.43;80.68;95004.94;4959223;28;20045;-83
2023/03/22 08:07:47;;;;;;;18.77;11.65;;;;;;;9.90;82.09;95075.22;4981434;28;20321;-82
2023/03/22 08:10:12;;;;;;;16.42;11.63;;;;;;;9.71;81.57;95034.50;4968277;28;20262;-79
2023/03/22 08:12:37;;;;;;;14.77;10.50;;;;;;;9.97;81.68;95065.91;4943950;28;20084;-78
2023/03/22 08:15:04;;;;;;;13.93;10.55;;;;;;;9.10;80.74;94948.16;4966834;28;20035;-78
2023/03/22 08:17:30;;;;;;;14.68;9.48;;;;;;;9.16;81.17;95001.84;4951750;28;20204;-78
2023/03/22 08:19:55;;;;;;;14.98;9.68;;;;;;;9.31;82.26;94993.84;4952399;28;20039;-81
2023/03/22 08:22:28;;;;;;;12.15;8.30;;;;;;;9.89;79.96;95077.06;4958788;28;20089;-80
2023/03/22 08:24:54;;;;;;;11.60;8.55;;;;;;;9.75;80.90;95062.03;4961951;28;20038;-79
2023/03/22 08:27:20;;;;;;;14.73;9.70;;;;;;;8.97;81.10;94942.63;4957209;28;20042;-79
2023/03/22 08:29:47;;;;;;;17.15;10.38;;;;;;;9.34;81.51;94998.63;4955178;28;20034;-77
2023/03/22 08:32:13;;;;;;;13.68;9.30;;;;;;;9.27;81.42;95017.44;4975847;28;20633;-77
2023/03/22 08:34:41;;;;;;;17.10;9.35;;;;;;;9.27;81.17;95049.19;4975140;28;20033;-80
2023/03/22 08:37:08;;;;;;;12.80;9.18;;;;;;;8.99;81.41;95004.81;4975141;28;20058;-77
2023/03/22 08:39:33;;;;;;;14.18;9.57;;;;;;;8.49;82.69;94971.25;4972897;28;20428;-78
2023/03/22 08:41:59;;;;;;;18.45;10.57;;;;;;;8.86;83.23;95005.31;4973657;28;20038;-78
2023/03/22 08:44:25;;;;;;;14.00;10.27;;;;;;;9.09;83.45;95025.94;4974315;28;20096;-78
2023/03/22 08:46:51;;;;;;;19.02;11.65;;;;;;;9.23;82.80;95007.66;4980933;28;20042;-77
2023/03/22 08:49:16;;;;;;;16.48;10.50;;;;;;;9.35;83.53;95008.16;4977108;28;20022;-77
2023/03/22 08:51:42;;;;;;;14.20;9.38;;;;;;;9.70;81.01;95073.41;4955233;28;20038;-79
2023/03/22 08:54:08;;;;;;;16.05;11.13;;;;;;;9.20;82.31;94979.88;4957465;28;20033;-81
2023/03/22 08:56:36;;;;;;;16.52;11.38;;;;;;;9.53;83.13;95026.09;4963657;28;20034;-81
2023/03/22 08:59:07;;;;;;;16.05;11.35;;;;;;;9.99;81.38;95094.78;4980375;28;20109;-83
2023/03/22 09:01:34;;;;;;;19.13;12.47;;;;;;;9.84;80.09;95095.59;4983440;28;20111;-79
2023/03/22 09:04:00;;;;;;;17.88;13.25;;;;;;;9.17;81.50;95022.75;4959752;28;20037;-78
2023/03/22 09:06:26;;;;;;;19.05;13.27;;;;;;;9.34;83.29;95046.25;4961298;28;20034;-79
2023/03/22 09:08:53;;;;;;;17.08;9.88;;;;;;;9.58;82.30;95096.75;4978121;28;20092;-80
2023/03/22 09:11:19;;;;;;;14.55;10.50;;;;;;;9.57;82.23;95101.25;4980407;28;20042;-79
2023/03/22 09:13:45;;;;;;;15.93;11.00;;;;;;;9.67;84.26;95095.94;4975060;28;20575;-77
2023/03/22 09:16:11;;;;;;;17.05;10.60;;;;;;;9.56;83.70;95081.13;4977494;28;20038;-79
2023/03/22 09:18:38;;;;;;;14.45;9.40;;;;;;;9.84;83.36;95102.78;4973707;28;20418;-79
2023/03/22 09:21:06;;;;;;;15.63;10.90;;;;;;;9.52;83.77;95037.75;4982014;28;20122;-79
2023/03/22 09:23:32;;;;;;;19.38;11.23;;;;;;;9.46;83.40;95027.44;4978836;28;20045;-80
2023/03/22 09:26:03;;;;;;;20.83;11.52;;;;;;;9.82;83.41;95067.84;4961291;28;20510;-79
2023/03/22 09:28:29;;;;;;;21.75;12.55;;;;;;;9.88;83.95;95070.19;4957748;28;20031;-78
2023/03/22 09:31:00;;;;;;;13.98;10.18;;;;;;;10.04;83.49;95108.00;4966399;28;20041;-80
2023/03/22 09:33:25;;;;;;;10.98;8.88;;;;;;;9.47;82.53;95039.59;4958893;28;20026;-78
2023/03/22 09:35:52;;;;;;;17.67;9.48;;;;;;;9.46;82.32;95024.81;4953356;28;20055;-78
2023/03/22 09:38:19;;;;;;;16.88;9.27;;;;;;;9.67;82.48;95050.94;4954313;28;20046;-77
2023/03/22 09:40:59;;;;;;;13.85;8.52;;;;;;;9.26;81.17;94988.59;4971627;28;20459;-80
2023/03/22 09:43:36;;;;;;;11.98;7.90;;;;;;;9.95;80.95;95107.78;4953483;28;20041;-77
2023/03/22 09:46:05;;;;;;;12.32;8.88;;;;;;;10.15;81.64;95106.09;4939574;28;20038;-79
2023/03/22 09:48:36;;;;;;;12.30;8.07;;;;;;;9.40;80.26;95002.03;4959778;28;20116;-78
2023/03/22 09:51:04;;;;;;;22.95;8.82;;;;;;;10.03;79.93;95095.81;4958249;28;20611;-79
2023/03/22 09:53:31;;;;;;;12.63;8.63;;;;;;;9.64;80.28;95063.91;4968786;28;20067;-77
2023/03/22 09:56:14;;;;;;;14.02;9.40;;;;;;;9.79;80.09;95076.31;4959925;28;20035;-78
2023/03/22 09:58:58;;;;;;;18.42;10.70;;;;;;;10.11;81.18;95113.00;4975863;28;20041;-78
2023/03/22 10:01:40;;;;;;;18.55;11.90;;;;;;;10.24;80.54;95102.63;4952777;28;20721;-77
2023/03/22 10:04:20;;;;;;;20.00;12.90;;;;;;;10.35;80.99;95108.69;4957507;28;20076;-79
2023/03/22 10:06:54;;;;;;;14.77;9.55;;;;;;;10.43;80.95;95102.81;4954588;28;20517;-78
2023/03/22 10:10:04;;;;;;;19.58;10.43;;;;;;;10.67;79.98;95111.69;4956661;28;20046;-79
2023/03/22 10:12:38;;;;;;;15.98;8.88;;;;;;;10.56;78.81;95107.50;4949832;28;20066;-79
2023/03/22 10:15:29;;;;;;;21.65;11.88;;;;;;;10.78;79.42;95120.34;4956769;28;20401;-79
2023/03/22 10:17:56;;;;;;;26.80;12.18;;;;;;;10.48;78.88;95064.88;4972399;28;20061;-80
2023/03/22 10:20:55;;;;;;;22.23;12.10;;;;;;;11.00;78.05;95117.28;4967478;28;20505;-79
2023/03/22 10:23:38;;;;;;;15.30;10.40;;;;;;;10.95;78.42;95118.13;4954466;28;20039;-80
2023/03/22 10:26:06;;;;;;;27.63;12.23;;;;;;;10.98;77.83;95122.88;4958869;28;20045;-81
2023/03/22 10:28:42;;;;;;;18.70;10.68;;;;;;;10.40;78.50;95076.84;4960913;28;20038;-80
2023/03/22 10:31:20;;;;;;;19.15;9.82;;;;;;;10.68;78.28;95085.97;4955279;28;20085;-80
2023/03/22 10:33:49;;;;;;;19.25;11.13;;;;;;;11.04;77.64;95113.81;4957954;28;20089;-84
2023/03/22 10:36:17;;;;;;;20.30;10.27;;;;;;;10.76;77.90;95070.22;4958547;28;20059;-81
2023/03/22 10:38:48;;;;;;;15.63;8.88;;;;;;;10.16;78.82;94986.56;4953298;28;21947;-78
2023/03/22 10:41:17;;;;;;;14.23;9.57;;;;;;;11.09;78.71;95116.41;4959574;28;20461;-77
2023/03/22 10:43:47;;;;;;;20.60;8.13;;;;;;;10.92;77.89;95083.38;4953978;28;20034;-78
2023/03/22 10:46:20;;;;;;;13.57;7.45;;;;;;;11.02;78.02;95089.41;4952309;28;20985;-77
2023/03/22 10:48:52;;;;;;;13.88;6.63;;;;;;;11.19;77.25;95115.56;4955773;28;20070;-78
2023/03/22 10:51:29;;;;;;;35.90;9.57;;;;;;;11.15;75.89;95115.31;4955764;28;20083;-77
2023/03/22 10:53:57;;;;;;;16.73;7.47;;;;;;;10.63;76.25;95004.56;4956931;28;20737;-80
2023/03/22 10:56:23;;;;;;;12.27;7.53;;;;;;;11.13;76.13;95060.94;4958868;28;20027;-77
2023/03/22 10:58:50;;;;;;;14.90;5.95;;;;;;;10.78;76.30;95008.94;4955343;28;20039;-81
2023/03/22 11:01:25;;;;;;;7.60;5.75;;;;;;;10.83;75.55;95020.28;4957106;28;20044;-78
2023/03/22 11:03:57;;;;;;;12.38;5.43;;;;;;;11.27;75.76;95072.47;4958563;28;20038;-82
2023/03/22 11:06:26;;;;;;;16.35;4.60;;;;;;;11.14;74.85;95052.66;4959970;28;20043;-79
2023/03/22 11:09:22;;;;;;;5.22;4.28;;;;;;;11.50;74.36;95098.28;4960977;28;20047;-81
2023/03/22 11:12:14;;;;;;;15.52;5.53;;;;;;;11.52;73.83;95104.06;4947487;28;20131;-81
2023/03/22 11:14:48;;;;;;;17.17;5.07;;;;;;;11.35;72.88;95097.63;4958930;28;20046;-83
2023/03/22 11:17:21;;;;;;;8.13;4.53;;;;;;;10.17;73.00;94918.47;4950473;28;20124;-80
2023/03/22 11:20:09;;;;;;;12.00;6.05;;;;;;;11.25;73.26;95064.00;4943484;28;20035;-79
2023/03/22 11:22:46;;;;;;;7.85;5.60;;;;;;;11.38;73.38;95084.56;4948580;28;20111;-78
2023/03/22 11:25:20;;;;;;;12.18;5.40;;;;;;;11.27;72.42;95071.69;4948604;28;20866;-79
2023/03/22 11:27:56;;;;;;;19.52;6.40;;;;;;;11.47;72.90;95085.56;4945191;28;20118;-80
2023/03/22 11:30:27;;;;;;;14.90;4.90;;;;;;;11.20;73.31;95048.91;4941662;28;20169;-79
2023/03/22 11:33:07;;;;;;;7.57;4.63;;;;;;;11.56;72.97;95096.34;4943821;28;20097;-78
2023/03/22 11:35:36;;;;;;;17.50;5.72;;;;;;;11.52;71.67;95098.75;4961395;28;20066;-78
2023/03/22 11:38:01;;;;;;;7.22;5.30;;;;;;;11.25;71.94;95069.31;4973481;28;20082;-79
2023/03/22 11:40:33;;;;;;;16.25;6.10;;;;;;;11.12;72.45;95060.13;4959718;28;20211;-79
2023/03/22 11:43:26;;;;;;;13.43;6.05;;;;;;;11.33;73.07;95092.59;4977620;28;20121;-78
2023/03/22 11:45:57;;;;;;;13.52;5.75;;;;;;;11.23;72.56;95045.69;4960422;28;20043;-79